Time;durP1;ratioP1;P1;durP2;ratioP2;P2;SDS_P1;SDS_P2;PMS_P1;PMS_P2;Temp;Humidity;BMP_temperature;BMP_pressure;BME280_temperature;BME280_humidity;BME280_pressure;Samples;Min_cycle;Max_cycle;Signal;HPM_P1;HPM_P2
2022/02/19 00:00:44;;;;;;;;;27.25;22.75;;;;;;;;5062287;28;51039;-52
2022/02/19 00:03:37;;;;;;;;;26.25;26.25;;;;;;;;5062356;28;51568;-55
2022/02/19 00:06:37;;;;;;;;;32.75;25.50;;;;;;;;5062315;28;51163;-51
2022/02/19 00:09:25;;;;;;;;;30.75;27.50;;;;;;;;5061438;28;51059;-54
2022/02/19 00:12:13;;;;;;;;;23.75;22.00;;;;;;;;5061724;28;51067;-54
2022/02/19 00:15:09;;;;;;;;;28.75;23.00;;;;;;;;5062100;28;51055;-53
2022/02/19 00:17:58;;;;;;;;;25.25;21.00;;;;;;;;5041481;28;51076;-51
2022/02/19 00:20:44;;;;;;;;;30.00;22.50;;;;;;;;5041774;28;51610;-52
2022/02/19 00:23:31;;;;;;;;;34.25;26.75;;;;;;;;5041190;28;51576;-53
2022/02/19 00:26:21;;;;;;;;;31.50;26.50;;;;;;;;5041119;28;51579;-53
2022/02/19 00:29:07;;;;;;;;;23.50;21.75;;;;;;;;5041087;28;51161;-51
2022/02/19 00:31:52;;;;;;;;;28.25;26.25;;;;;;;;5041621;28;51147;-53
2022/02/19 00:34:36;;;;;;;;;28.50;25.75;;;;;;;;5041140;28;51624;-52
2022/02/19 00:37:23;;;;;;;;;30.75;22.25;;;;;;;;5050024;28;51500;-52
2022/02/19 00:40:09;;;;;;;;;37.75;28.50;;;;;;;;5041736;28;51116;-52
2022/02/19 00:42:55;;;;;;;;;31.25;26.25;;;;;;;;5042485;28;51202;-54
2022/02/19 00:45:39;;;;;;;;;32.00;24.75;;;;;;;;5041321;28;51323;-54
2022/02/19 00:48:30;;;;;;;;;30.75;24.00;;;;;;;;5042159;28;51552;-52
2022/02/19 00:51:15;;;;;;;;;30.25;25.25;;;;;;;;5041042;28;51587;-53
2022/02/19 00:54:01;;;;;;;;;28.75;27.50;;;;;;;;5054557;28;51468;-52
2022/02/19 00:57:11;;;;;;;;;21.50;20.50;;;;;;;;5046268;28;51309;-53
2022/02/19 01:00:10;;;;;;;;;34.75;27.00;;;;;;;;5051040;28;51521;-52
2022/02/19 01:03:04;;;;;;;;;27.75;24.25;;;;;;;;5040535;28;51129;-53
2022/02/19 01:05:50;;;;;;;;;34.25;25.25;;;;;;;;5046787;28;51135;-50
2022/02/19 01:08:35;;;;;;;;;29.75;25.00;;;;;;;;5040485;28;51228;-51
2022/02/19 01:11:19;;;;;;;;;37.00;28.50;;;;;;;;5040908;28;51170;-52
2022/02/19 01:14:05;;;;;;;;;32.75;25.75;;;;;;;;5040177;28;51419;-51
2022/02/19 01:16:49;;;;;;;;;30.25;21.00;;;;;;;;5040297;28;51532;-55
2022/02/19 01:19:50;;;;;;;;;30.25;23.25;;;;;;;;5040214;28;51105;-49
2022/02/19 01:22:38;;;;;;;;;36.25;28.00;;;;;;;;5040825;28;51175;-51
2022/02/19 01:25:31;;;;;;;;;29.75;25.25;;;;;;;;5034213;28;51445;-51
2022/02/19 01:28:21;;;;;;;;;31.50;26.50;;;;;;;;5043634;28;51046;-52
2022/02/19 01:31:08;;;;;;;;;28.00;24.00;;;;;;;;5039833;28;51535;-54
2022/02/19 01:33:53;;;;;;;;;29.00;22.75;;;;;;;;5039811;28;51077;-52
2022/02/19 01:36:39;;;;;;;;;34.00;24.25;;;;;;;;5039605;28;51139;-53
2022/02/19 01:39:29;;;;;;;;;28.50;24.75;;;;;;;;5039704;28;51092;-54
2022/02/19 01:42:15;;;;;;;;;29.25;24.25;;;;;;;;5039956;28;52039;-55
2022/02/19 01:45:04;;;;;;;;;30.75;24.25;;;;;;;;5043658;28;51124;-53
2022/02/19 01:47:49;;;;;;;;;33.25;27.00;;;;;;;;5047672;28;51120;-55
2022/02/19 01:50:35;;;;;;;;;30.00;26.00;;;;;;;;5045497;28;51517;-53
2022/02/19 01:53:22;;;;;;;;;32.75;27.50;;;;;;;;5040159;28;51147;-53
2022/02/19 01:56:13;;;;;;;;;31.75;27.00;;;;;;;;5040989;28;51518;-53
2022/02/19 01:58:57;;;;;;;;;25.50;24.50;;;;;;;;5040693;28;51183;-55
2022/02/19 02:01:42;;;;;;;;;30.25;25.25;;;;;;;;5044545;28;51123;-49
2022/02/19 02:04:31;;;;;;;;;33.00;25.25;;;;;;;;5039797;28;51101;-52
2022/02/19 02:07:28;;;;;;;;;25.75;23.25;;;;;;;;5045063;28;51179;-53
2022/02/19 02:10:12;;;;;;;;;29.25;23.75;;;;;;;;5045425;28;51161;-56
2022/02/19 02:12:57;;;;;;;;;30.75;26.00;;;;;;;;5044928;28;51154;-55
2022/02/19 02:15:43;;;;;;;;;29.75;27.00;;;;;;;;5045807;28;51216;-54
2022/02/19 02:18:28;;;;;;;;;28.25;22.50;;;;;;;;5044947;28;51111;-54
2022/02/19 02:21:13;;;;;;;;;35.75;27.50;;;;;;;;5042306;28;51155;-52
2022/02/19 02:23:58;;;;;;;;;30.75;26.50;;;;;;;;5058706;28;51491;-55
2022/02/19 02:26:44;;;;;;;;;30.50;27.25;;;;;;;;5047074;28;51163;-55
2022/02/19 02:29:30;;;;;;;;;33.25;25.00;;;;;;;;5042053;28;51492;-50
2022/02/19 02:32:24;;;;;;;;;21.25;20.00;;;;;;;;5047991;28;51545;-52
2022/02/19 02:35:27;;;;;;;;;30.75;26.25;;;;;;;;5048636;28;51238;-56
2022/02/19 02:38:12;;;;;;;;;30.00;27.00;;;;;;;;5039532;28;51098;-54
2022/02/19 02:41:20;;;;;;;;;32.50;27.00;;;;;;;;5038916;28;51115;-53
2022/02/19 02:44:05;;;;;;;;;30.00;26.25;;;;;;;;5038957;28;51176;-51
2022/02/19 02:46:53;;;;;;;;;33.75;28.00;;;;;;;;5039735;28;51575;-52
2022/02/19 02:49:37;;;;;;;;;33.25;24.50;;;;;;;;5054123;28;51198;-53
2022/02/19 02:52:21;;;;;;;;;31.00;27.50;;;;;;;;5053668;28;51049;-55
2022/02/19 02:55:09;;;;;;;;;36.50;27.25;;;;;;;;5047539;28;51098;-53
2022/02/19 02:58:00;;;;;;;;;32.25;28.00;;;;;;;;5040171;28;51136;-51
2022/02/19 03:00:44;;;;;;;;;33.00;26.00;;;;;;;;5049026;28;51126;-53
2022/02/19 03:03:31;;;;;;;;;28.00;24.75;;;;;;;;5051641;28;51037;-55
2022/02/19 03:06:18;;;;;;;;;28.25;27.00;;;;;;;;5047948;28;51407;-55
2022/02/19 03:09:05;;;;;;;;;27.50;24.50;;;;;;;;5049185;28;51203;-56
2022/02/19 03:11:49;;;;;;;;;27.75;22.50;;;;;;;;5049866;28;51541;-51
2022/02/19 03:14:36;;;;;;;;;30.75;29.00;;;;;;;;5050872;28;50979;-52
2022/02/19 03:17:23;;;;;;;;;30.00;26.25;;;;;;;;5051083;28;51246;-52
2022/02/19 03:20:08;;;;;;;;;29.75;26.50;;;;;;;;5046277;28;51194;-54
2022/02/19 03:22:53;;;;;;;;;35.25;25.75;;;;;;;;5059845;28;51544;-51
2022/02/19 03:25:38;;;;;;;;;27.50;23.25;;;;;;;;5055321;28;51091;-52
2022/02/19 03:28:28;;;;;;;;;30.75;24.75;;;;;;;;5053949;28;51098;-56
2022/02/19 03:31:23;;;;;;;;;26.50;25.00;;;;;;;;5051593;28;51040;-52
2022/02/19 03:34:13;;;;;;;;;39.25;24.75;;;;;;;;5048060;28;50993;-53
2022/02/19 03:36:58;;;;;;;;;25.75;25.25;;;;;;;;5048522;28;51613;-53
2022/02/19 03:39:47;;;;;;;;;32.25;25.25;;;;;;;;5051034;28;51031;-53
2022/02/19 03:42:37;;;;;;;;;28.75;24.75;;;;;;;;5051352;28;51210;-49
2022/02/19 03:45:21;;;;;;;;;42.25;28.50;;;;;;;;5044130;28;51166;-55
2022/02/19 03:48:05;;;;;;;;;32.00;26.75;;;;;;;;5039891;28;51565;-55
2022/02/19 03:50:50;;;;;;;;;29.50;24.75;;;;;;;;5046900;28;51045;-52
2022/02/19 03:53:34;;;;;;;;;31.75;27.25;;;;;;;;5051171;28;51108;-52
2022/02/19 03:56:19;;;;;;;;;38.25;23.50;;;;;;;;5049539;28;51106;-52
2022/02/19 03:59:05;;;;;;;;;32.00;23.50;;;;;;;;5043904;28;51143;-52
2022/02/19 04:12:07;;;;;;;;;34.75;26.50;;;;;;;;4759707;29;51256;-55
2022/02/19 04:14:51;;;;;;;;;32.75;23.00;;;;;;;;4795923;29;51183;-52
2022/02/19 04:17:35;;;;;;;;;25.00;22.75;;;;;;;;4879263;29;51170;-54
2022/02/19 04:20:19;;;;;;;;;37.00;28.50;;;;;;;;4882960;29;51147;-52
2022/02/19 04:23:03;;;;;;;;;27.75;25.00;;;;;;;;4882765;29;51497;-56
2022/02/19 04:25:48;;;;;;;;;26.75;22.25;;;;;;;;4882760;29;51145;-54
2022/02/19 04:28:32;;;;;;;;;32.25;26.00;;;;;;;;4878693;29;51528;-54
2022/02/19 04:31:16;;;;;;;;;30.00;24.00;;;;;;;;4895544;28;51280;-51
2022/02/19 04:34:00;;;;;;;;;32.75;27.75;;;;;;;;4882028;29;51070;-47
2022/02/19 04:36:45;;;;;;;;;37.25;27.25;;;;;;;;4895316;28;52698;-54
2022/02/19 04:39:29;;;;;;;;;28.50;25.50;;;;;;;;4881785;29;51269;-55
2022/02/19 04:42:13;;;;;;;;;31.50;25.00;;;;;;;;4909611;28;51246;-54
2022/02/19 04:44:57;;;;;;;;;28.75;24.50;;;;;;;;4953484;28;51229;-52
2022/02/19 04:47:42;;;;;;;;;29.25;26.00;;;;;;;;4988726;28;51500;-54
2022/02/19 04:50:27;;;;;;;;;25.75;22.50;;;;;;;;5046296;28;51482;-53
2022/02/19 04:53:11;;;;;;;;;27.25;24.50;;;;;;;;5047733;28;52524;-51
2022/02/19 04:55:55;;;;;;;;;27.50;25.25;;;;;;;;5047401;28;51151;-55
2022/02/19 04:58:40;;;;;;;;;28.50;25.00;;;;;;;;5052618;28;51218;-55
2022/02/19 05:01:24;;;;;;;;;26.75;21.50;;;;;;;;5059213;28;51024;-53
2022/02/19 05:04:09;;;;;;;;;34.50;25.25;;;;;;;;5047435;28;51515;-52
2022/02/19 05:06:53;;;;;;;;;29.25;28.00;;;;;;;;5049901;28;51467;-52
2022/02/19 05:09:38;;;;;;;;;29.50;26.25;;;;;;;;5060135;28;51060;-54
2022/02/19 05:12:22;;;;;;;;;38.00;29.50;;;;;;;;5055093;28;51108;-55
2022/02/19 05:15:11;;;;;;;;;34.25;29.25;;;;;;;;5046963;28;51150;-54
2022/02/19 05:17:56;;;;;;;;;27.50;18.00;;;;;;;;5042286;28;51434;-52
2022/02/19 05:20:40;;;;;;;;;34.75;28.75;;;;;;;;5040819;28;51494;-56
2022/02/19 05:23:24;;;;;;;;;34.25;26.75;;;;;;;;5043218;28;51016;-55
2022/02/19 05:26:09;;;;;;;;;29.25;28.00;;;;;;;;5044197;28;51104;-54
2022/02/19 05:28:53;;;;;;;;;29.75;27.75;;;;;;;;5040554;28;51572;-51
2022/02/19 05:31:37;;;;;;;;;29.75;26.75;;;;;;;;5041469;28;51033;-52
2022/02/19 05:34:22;;;;;;;;;34.25;26.75;;;;;;;;5043052;28;51177;-55
2022/02/19 05:37:06;;;;;;;;;30.00;22.25;;;;;;;;5040221;28;51526;-56
2022/02/19 05:39:51;;;;;;;;;32.25;23.50;;;;;;;;5050997;28;51226;-50
2022/02/19 05:42:35;;;;;;;;;31.00;28.50;;;;;;;;5046347;28;51540;-54
2022/02/19 05:45:20;;;;;;;;;37.25;28.00;;;;;;;;5041424;28;51074;-54
2022/02/19 05:48:04;;;;;;;;;28.50;26.25;;;;;;;;5044870;28;51178;-51
2022/02/19 05:50:50;;;;;;;;;27.75;25.75;;;;;;;;5043991;28;51176;-53
2022/02/19 05:53:34;;;;;;;;;31.25;27.00;;;;;;;;5048136;28;51120;-51
2022/02/19 05:56:18;;;;;;;;;29.50;25.00;;;;;;;;5049962;28;51130;-53
2022/02/19 05:59:03;;;;;;;;;28.50;24.00;;;;;;;;5045397;28;51234;-52
2022/02/19 06:01:47;;;;;;;;;31.75;23.75;;;;;;;;5041998;28;51439;-53
2022/02/19 06:04:32;;;;;;;;;33.75;30.50;;;;;;;;5046266;28;51112;-54
2022/02/19 06:07:16;;;;;;;;;29.00;24.50;;;;;;;;5045492;28;51561;-53
2022/02/19 06:10:01;;;;;;;;;37.50;26.50;;;;;;;;5046268;28;51232;-53
2022/02/19 06:12:45;;;;;;;;;39.00;29.25;;;;;;;;5045950;28;51116;-53
2022/02/19 06:15:29;;;;;;;;;37.00;26.75;;;;;;;;5040109;28;51178;-55
2022/02/19 06:18:14;;;;;;;;;33.00;28.75;;;;;;;;5050826;28;51143;-54
2022/02/19 06:20:58;;;;;;;;;34.25;28.00;;;;;;;;5039078;28;51068;-53
2022/02/19 06:23:42;;;;;;;;;35.75;27.75;;;;;;;;5040088;28;51127;-47
2022/02/19 06:26:27;;;;;;;;;42.50;30.75;;;;;;;;5039096;28;51116;-48
2022/02/19 06:29:11;;;;;;;;;24.00;23.00;;;;;;;;5039175;28;51163;-47
2022/02/19 06:31:56;;;;;;;;;29.25;24.00;;;;;;;;5041610;28;51025;-48
2022/02/19 06:34:40;;;;;;;;;32.00;24.50;;;;;;;;5059439;28;51067;-46
2022/02/19 06:37:25;;;;;;;;;36.00;28.25;;;;;;;;5059180;28;51418;-46
2022/02/19 06:40:10;;;;;;;;;26.75;24.00;;;;;;;;5059274;28;51033;-44
2022/02/19 06:42:54;;;;;;;;;41.25;32.00;;;;;;;;5041051;28;51598;-48
2022/02/19 06:45:39;;;;;;;;;35.25;30.50;;;;;;;;5052108;28;51126;-45
2022/02/19 06:48:23;;;;;;;;;47.75;35.50;;;;;;;;5040276;28;51068;-47
2022/02/19 06:51:07;;;;;;;;;44.00;37.00;;;;;;;;5057379;28;51428;-49
2022/02/19 06:53:56;;;;;;;;;53.50;43.00;;;;;;;;5038886;28;51199;-47
2022/02/19 06:56:40;;;;;;;;;95.50;84.00;;;;;;;;5038769;28;51167;-50
2022/02/19 06:59:25;;;;;;;;;99.25;86.00;;;;;;;;5038879;28;51060;-47
2022/02/19 07:02:09;;;;;;;;;129.00;105.00;;;;;;;;5038332;28;51139;-49
2022/02/19 07:04:53;;;;;;;;;134.75;122.50;;;;;;;;5049832;28;52252;-51
2022/02/19 07:07:37;;;;;;;;;56.00;42.50;;;;;;;;5059159;28;51153;-46
2022/02/19 07:10:22;;;;;;;;;35.75;30.75;;;;;;;;5045116;28;51060;-48
2022/02/19 07:13:06;;;;;;;;;34.00;31.75;;;;;;;;5038838;28;51127;-46
2022/02/19 07:15:51;;;;;;;;;33.50;28.00;;;;;;;;5042737;28;51142;-46
2022/02/19 07:18:35;;;;;;;;;36.50;28.75;;;;;;;;5038850;28;51089;-46
2022/02/19 07:21:20;;;;;;;;;39.00;31.50;;;;;;;;5038400;28;51077;-47
2022/02/19 07:24:05;;;;;;;;;34.50;28.75;;;;;;;;5038500;28;51057;-47
2022/02/19 07:26:49;;;;;;;;;44.50;32.50;;;;;;;;5041208;28;51528;-47
2022/02/19 07:29:33;;;;;;;;;45.50;36.25;;;;;;;;5038470;28;51122;-48
2022/02/19 07:32:18;;;;;;;;;49.00;38.75;;;;;;;;5038307;28;51620;-47
2022/02/19 07:35:03;;;;;;;;;48.25;38.25;;;;;;;;5048774;28;51180;-52
2022/02/19 07:37:47;;;;;;;;;47.00;37.75;;;;;;;;5044552;28;50993;-49
2022/02/19 07:40:31;;;;;;;;;51.25;40.25;;;;;;;;5042085;28;51167;-50
2022/02/19 07:43:16;;;;;;;;;34.25;31.00;;;;;;;;5049699;28;51016;-49
2022/02/19 07:46:01;;;;;;;;;37.00;29.00;;;;;;;;5042017;28;51135;-48
2022/02/19 07:48:45;;;;;;;;;27.75;27.25;;;;;;;;5042490;28;51246;-49
2022/02/19 08:00:37;;;;;;;;;36.00;29.00;;;;;;;;5048895;28;51368;-49
2022/02/19 08:03:23;;;;;;;;;42.00;29.25;;;;;;;;5052104;28;51199;-49
2022/02/19 08:06:07;;;;;;;;;32.25;28.50;;;;;;;;5046159;28;51617;-46
2022/02/19 08:08:51;;;;;;;;;28.50;19.25;;;;;;;;5043299;28;51231;-48
2022/02/19 08:11:36;;;;;;;;;29.50;25.00;;;;;;;;5057669;28;51162;-46
2022/02/19 08:14:21;;;;;;;;;26.75;25.25;;;;;;;;5050170;28;51103;-44
2022/02/19 08:17:05;;;;;;;;;38.25;28.50;;;;;;;;5049821;28;51255;-47
2022/02/19 08:19:50;;;;;;;;;27.25;23.75;;;;;;;;5042724;28;51041;-49
2022/02/19 08:22:34;;;;;;;;;30.75;26.75;;;;;;;;5042420;28;51195;-46
2022/02/19 08:25:19;;;;;;;;;31.25;27.25;;;;;;;;5059452;28;51155;-49
2022/02/19 08:28:05;;;;;;;;;28.75;24.25;;;;;;;;5042990;28;51159;-47
2022/02/19 08:30:53;;;;;;;;;27.25;23.00;;;;;;;;5044557;28;51515;-48
2022/02/19 08:33:37;;;;;;;;;27.00;23.00;;;;;;;;5041224;28;51089;-47
2022/02/19 08:36:21;;;;;;;;;32.75;26.25;;;;;;;;5046097;28;51103;-49
2022/02/19 08:39:05;;;;;;;;;29.25;22.50;;;;;;;;5049628;28;51056;-46
2022/02/19 08:41:50;;;;;;;;;23.50;21.00;;;;;;;;5049909;28;51144;-46
2022/02/19 08:44:34;;;;;;;;;32.75;25.50;;;;;;;;5040976;28;51136;-48
2022/02/19 08:47:19;;;;;;;;;27.25;22.75;;;;;;;;5041114;28;51147;-49
2022/02/19 08:50:04;;;;;;;;;23.50;21.50;;;;;;;;5040586;28;51109;-49
2022/02/19 08:52:48;;;;;;;;;24.00;21.00;;;;;;;;5052932;28;51242;-51
2022/02/19 08:55:33;;;;;;;;;29.75;23.75;;;;;;;;5060642;28;51191;-48
2022/02/19 08:58:17;;;;;;;;;31.25;20.75;;;;;;;;5045697;28;51575;-48
2022/02/19 09:01:02;;;;;;;;;27.75;24.25;;;;;;;;5040882;28;51159;-51
2022/02/19 09:03:46;;;;;;;;;28.25;23.75;;;;;;;;5048484;28;51065;-47
2022/02/19 09:06:30;;;;;;;;;27.75;24.00;;;;;;;;5041952;28;51233;-47
2022/02/19 09:09:15;;;;;;;;;26.00;21.00;;;;;;;;5041017;28;51189;-47
2022/02/19 09:11:59;;;;;;;;;24.00;22.25;;;;;;;;5042293;28;51034;-49
2022/02/19 09:14:44;;;;;;;;;28.00;24.50;;;;;;;;5050715;28;51133;-48
2022/02/19 09:17:28;;;;;;;;;30.25;21.25;;;;;;;;5043980;28;51301;-48
2022/02/19 09:20:13;;;;;;;;;27.75;24.25;;;;;;;;5038799;28;51571;-52
2022/02/19 09:22:57;;;;;;;;;27.50;23.50;;;;;;;;5049599;28;51130;-52
2022/02/19 09:25:41;;;;;;;;;29.75;26.00;;;;;;;;5050384;28;51417;-53
2022/02/19 09:28:26;;;;;;;;;24.00;23.00;;;;;;;;5038653;28;51107;-49
2022/02/19 09:31:11;;;;;;;;;25.25;22.00;;;;;;;;5046618;28;51154;-48
2022/02/19 09:33:57;;;;;;;;;21.75;19.50;;;;;;;;5040463;28;51171;-49
2022/02/19 09:36:41;;;;;;;;;24.75;22.00;;;;;;;;5039533;28;51171;-52
2022/02/19 09:39:25;;;;;;;;;28.25;22.50;;;;;;;;5059404;28;51152;-47
2022/02/19 09:42:13;;;;;;;;;24.25;21.25;;;;;;;;5058961;28;51128;-50
2022/02/19 09:44:59;;;;;;;;;28.00;24.25;;;;;;;;5050877;28;51099;-50
2022/02/19 09:47:44;;;;;;;;;33.75;26.00;;;;;;;;5039102;28;51506;-53
2022/02/19 09:50:28;;;;;;;;;22.25;20.50;;;;;;;;5038961;28;51554;-47
2022/02/19 09:53:12;;;;;;;;;25.75;23.50;;;;;;;;5039506;28;51170;-46
2022/02/19 09:55:57;;;;;;;;;24.00;22.25;;;;;;;;5038214;28;51563;-50
2022/02/19 09:58:45;;;;;;;;;28.50;21.00;;;;;;;;5038052;28;51225;-51
2022/02/19 10:01:29;;;;;;;;;24.75;21.00;;;;;;;;5039149;28;51404;-51
2022/02/19 10:04:24;;;;;;;;;26.50;22.00;;;;;;;;5038465;28;51052;-50
2022/02/19 10:07:13;;;;;;;;;34.75;23.25;;;;;;;;5038982;28;51121;-49
2022/02/19 10:09:59;;;;;;;;;26.25;22.00;;;;;;;;5046867;28;51140;-50
2022/02/19 10:12:45;;;;;;;;;27.25;22.50;;;;;;;;5058942;28;51096;-48
2022/02/19 10:15:51;;;;;;;;;29.25;26.00;;;;;;;;5058890;28;51164;-49
2022/02/19 10:18:37;;;;;;;;;27.25;21.75;;;;;;;;5055009;28;51179;-52
2022/02/19 10:21:22;;;;;;;;;26.25;23.25;;;;;;;;5038679;28;51317;-52
2022/02/19 10:24:06;;;;;;;;;28.50;25.50;;;;;;;;5033013;28;51185;-51
2022/02/19 10:26:56;;;;;;;;;25.75;22.50;;;;;;;;5042411;28;51683;-50
2022/02/19 10:29:48;;;;;;;;;28.50;22.75;;;;;;;;5039716;28;51147;-48
2022/02/19 10:32:45;;;;;;;;;32.25;23.75;;;;;;;;5041345;28;51285;-47
2022/02/19 10:35:40;;;;;;;;;23.00;20.50;;;;;;;;5044840;28;51364;-50
2022/02/19 10:38:24;;;;;;;;;33.00;27.00;;;;;;;;5058405;28;51123;-48
2022/02/19 10:41:10;;;;;;;;;31.50;22.75;;;;;;;;5051029;28;51082;-49
2022/02/19 10:43:54;;;;;;;;;21.75;20.50;;;;;;;;5038380;28;50944;-48
2022/02/19 10:46:38;;;;;;;;;26.25;21.25;;;;;;;;5038750;28;51123;-51
2022/02/19 10:49:24;;;;;;;;;25.00;20.50;;;;;;;;5052819;28;51345;-49
2022/02/19 10:52:12;;;;;;;;;23.50;21.00;;;;;;;;5040908;28;51176;-50
2022/02/19 10:55:04;;;;;;;;;25.50;22.50;;;;;;;;5045291;28;51157;-49
2022/02/19 10:57:48;;;;;;;;;25.00;21.50;;;;;;;;5039934;28;51437;-50
2022/02/19 11:00:34;;;;;;;;;23.75;19.00;;;;;;;;5040929;28;51141;-49
2022/02/19 11:03:21;;;;;;;;;30.00;19.00;;;;;;;;5040475;28;51523;-50
2022/02/19 11:06:05;;;;;;;;;29.50;24.50;;;;;;;;5044982;28;51203;-50
2022/02/19 11:08:50;;;;;;;;;24.75;17.50;;;;;;;;5039264;28;51193;-47
2022/02/19 11:11:35;;;;;;;;;25.50;20.50;;;;;;;;5041296;28;51404;-50
2022/02/19 11:14:20;;;;;;;;;20.00;18.25;;;;;;;;5048025;28;51421;-46
2022/02/19 11:17:06;;;;;;;;;24.75;17.50;;;;;;;;5043534;28;51612;-49
2022/02/19 11:19:50;;;;;;;;;25.75;20.50;;;;;;;;5041187;28;51222;-49
2022/02/19 11:22:35;;;;;;;;;25.25;20.25;;;;;;;;5045791;28;51226;-47
2022/02/19 11:25:21;;;;;;;;;22.50;18.00;;;;;;;;5050893;28;51495;-51
2022/02/19 11:28:06;;;;;;;;;20.75;17.50;;;;;;;;5055477;28;51067;-48
2022/02/19 11:30:54;;;;;;;;;24.00;20.00;;;;;;;;5041338;28;51380;-50
2022/02/19 11:33:39;;;;;;;;;23.75;20.00;;;;;;;;5043319;28;51291;-46
2022/02/19 11:36:27;;;;;;;;;19.00;18.75;;;;;;;;5045181;28;51024;-51
2022/02/19 11:39:12;;;;;;;;;17.25;13.75;;;;;;;;5040946;28;51228;-49
2022/02/19 11:41:57;;;;;;;;;23.50;19.25;;;;;;;;5048777;28;51450;-50
2022/02/19 11:44:48;;;;;;;;;27.00;22.25;;;;;;;;5040594;28;51217;-44
2022/02/19 11:47:32;;;;;;;;;22.25;20.00;;;;;;;;5047619;28;51177;-49
2022/02/19 11:50:27;;;;;;;;;29.25;22.00;;;;;;;;5057411;28;51108;-45
2022/02/19 11:53:12;;;;;;;;;25.00;19.50;;;;;;;;5042093;28;51563;-51
2022/02/19 11:55:59;;;;;;;;;20.75;17.00;;;;;;;;5041019;28;51107;-51
2022/02/19 11:58:51;;;;;;;;;24.25;19.25;;;;;;;;5045826;28;51127;-46
2022/02/19 12:01:35;;;;;;;;;16.25;15.75;;;;;;;;5042599;28;51397;-45
2022/02/19 12:04:20;;;;;;;;;19.50;18.25;;;;;;;;5041940;28;51057;-52
2022/02/19 12:07:07;;;;;;;;;17.00;15.50;;;;;;;;5052545;28;51126;-47
2022/02/19 12:10:05;;;;;;;;;22.00;18.75;;;;;;;;5049104;28;51182;-51
2022/02/19 12:13:08;;;;;;;;;18.00;15.25;;;;;;;;5045499;28;51087;-50
2022/02/19 12:15:58;;;;;;;;;20.50;20.50;;;;;;;;5040789;28;51448;-51
2022/02/19 12:18:53;;;;;;;;;19.25;17.50;;;;;;;;5050828;28;51607;-51
2022/02/19 12:21:44;;;;;;;;;22.75;15.75;;;;;;;;5046647;28;51592;-50
2022/02/19 12:24:29;;;;;;;;;18.75;15.50;;;;;;;;5048108;28;51127;-46
2022/02/19 12:27:14;;;;;;;;;17.50;17.00;;;;;;;;5052287;28;51547;-50
2022/02/19 12:30:19;;;;;;;;;21.25;18.25;;;;;;;;5056672;28;51126;-46
2022/02/19 12:33:03;;;;;;;;;19.00;14.50;;;;;;;;5040955;28;51458;-51
2022/02/19 12:35:47;;;;;;;;;27.25;18.50;;;;;;;;5043886;28;51148;-47
2022/02/19 12:38:32;;;;;;;;;19.00;15.75;;;;;;;;5043672;28;51160;-48
2022/02/19 12:41:16;;;;;;;;;19.00;18.50;;;;;;;;5042505;28;51191;-48
2022/02/19 12:44:02;;;;;;;;;18.50;16.00;;;;;;;;5041042;28;51378;-45
2022/02/19 12:46:47;;;;;;;;;15.75;15.75;;;;;;;;5039606;28;51187;-46
2022/02/19 12:49:31;;;;;;;;;17.50;15.75;;;;;;;;5039928;28;51218;-49
2022/02/19 12:52:16;;;;;;;;;19.50;18.75;;;;;;;;5040216;28;51312;-48
2022/02/19 12:55:00;;;;;;;;;21.00;16.00;;;;;;;;5049963;28;51158;-46
2022/02/19 12:57:50;;;;;;;;;21.50;18.25;;;;;;;;5040254;28;51081;-47
2022/02/19 13:00:34;;;;;;;;;16.00;14.50;;;;;;;;5039379;28;51163;-47
2022/02/19 13:03:20;;;;;;;;;19.75;18.00;;;;;;;;5042340;28;51132;-48
2022/02/19 13:06:04;;;;;;;;;20.50;17.50;;;;;;;;5040345;28;51463;-49
2022/02/19 13:08:48;;;;;;;;;17.75;15.75;;;;;;;;5039141;28;51362;-47
2022/02/19 13:11:34;;;;;;;;;19.75;17.50;;;;;;;;5040173;28;52974;-48
2022/02/19 13:14:18;;;;;;;;;21.50;16.75;;;;;;;;5041323;28;51100;-48
2022/02/19 13:17:09;;;;;;;;;18.25;16.50;;;;;;;;5039119;28;51113;-45
2022/02/19 13:20:06;;;;;;;;;23.75;17.00;;;;;;;;5041161;28;51419;-47
2022/02/19 13:22:51;;;;;;;;;26.00;21.00;;;;;;;;5040834;28;51150;-46
2022/02/19 13:25:35;;;;;;;;;20.25;15.75;;;;;;;;5040595;28;51307;-45
2022/02/19 13:28:20;;;;;;;;;17.75;16.50;;;;;;;;5040632;28;51165;-49
2022/02/19 13:31:05;;;;;;;;;21.50;17.00;;;;;;;;5051079;28;51406;-48
2022/02/19 13:33:50;;;;;;;;;16.25;13.25;;;;;;;;5043783;28;51583;-50
2022/02/19 13:36:39;;;;;;;;;24.50;19.00;;;;;;;;5040868;28;51233;-46
2022/02/19 13:39:33;;;;;;;;;24.00;16.25;;;;;;;;5049951;28;51091;-49
2022/02/19 13:42:18;;;;;;;;;17.75;16.25;;;;;;;;5039115;28;51163;-48
2022/02/19 13:45:03;;;;;;;;;15.50;15.50;;;;;;;;5032374;28;51131;-48
2022/02/19 13:47:47;;;;;;;;;19.00;17.00;;;;;;;;5041112;28;51493;-49
2022/02/19 13:50:50;;;;;;;;;26.25;18.00;;;;;;;;5039268;28;51088;-47
2022/02/19 13:53:39;;;;;;;;;19.25;18.00;;;;;;;;5037794;28;51038;-46
2022/02/19 13:56:25;;;;;;;;;19.75;15.75;;;;;;;;5039537;28;51336;-52
2022/02/19 13:59:16;;;;;;;;;19.50;16.75;;;;;;;;5056488;28;51123;-46
2022/02/19 14:02:11;;;;;;;;;23.75;16.00;;;;;;;;5039502;28;51338;-48
2022/02/19 14:05:00;;;;;;;;;19.50;18.75;;;;;;;;5038965;28;51171;-48
2022/02/19 14:07:57;;;;;;;;;20.75;16.75;;;;;;;;5044813;28;51520;-47
2022/02/19 14:10:56;;;;;;;;;19.00;17.25;;;;;;;;5039098;28;51177;-48
2022/02/19 14:13:50;;;;;;;;;19.00;16.75;;;;;;;;5040007;28;51081;-51
2022/02/19 14:16:34;;;;;;;;;23.00;18.50;;;;;;;;5038605;28;51076;-48
2022/02/19 14:19:18;;;;;;;;;20.00;17.50;;;;;;;;5039393;28;51282;-49
2022/02/19 14:22:08;;;;;;;;;20.00;17.25;;;;;;;;5043237;28;51431;-48
2022/02/19 14:25:00;;;;;;;;;27.50;21.50;;;;;;;;5054099;28;51171;-50
2022/02/19 14:27:56;;;;;;;;;27.50;19.75;;;;;;;;5054932;28;51015;-49
2022/02/19 14:30:42;;;;;;;;;22.25;18.75;;;;;;;;5038117;28;51187;-51
2022/02/19 14:33:27;;;;;;;;;20.50;16.25;;;;;;;;5055537;28;51546;-46
2022/02/19 14:36:11;;;;;;;;;22.00;18.50;;;;;;;;5040349;28;51089;-51
2022/02/19 14:38:55;;;;;;;;;23.50;19.25;;;;;;;;5034929;28;51527;-49
2022/02/19 14:41:40;;;;;;;;;20.25;16.50;;;;;;;;5043707;28;51104;-49
2022/02/19 14:44:25;;;;;;;;;21.25;15.50;;;;;;;;5047108;28;51150;-50
2022/02/19 14:47:09;;;;;;;;;21.75;17.75;;;;;;;;5045724;28;51162;-47
2022/02/19 14:49:54;;;;;;;;;20.75;15.75;;;;;;;;5038063;28;51189;-47
2022/02/19 14:52:39;;;;;;;;;23.75;16.75;;;;;;;;5040327;28;51627;-48
2022/02/19 14:55:23;;;;;;;;;17.25;14.75;;;;;;;;5037781;28;51233;-45
2022/02/19 14:58:07;;;;;;;;;17.75;16.50;;;;;;;;5039698;28;51123;-50
2022/02/19 15:00:52;;;;;;;;;19.75;17.25;;;;;;;;5049056;28;51138;-52
2022/02/19 15:03:36;;;;;;;;;21.75;17.00;;;;;;;;5038855;28;51426;-47
2022/02/19 15:06:23;;;;;;;;;20.00;16.00;;;;;;;;5039555;28;51170;-47
2022/02/19 15:09:07;;;;;;;;;20.25;18.75;;;;;;;;5042127;28;51227;-47
2022/02/19 15:11:51;;;;;;;;;15.50;15.50;;;;;;;;5042518;28;51759;-48
2022/02/19 15:14:37;;;;;;;;;23.50;17.50;;;;;;;;5038747;28;51528;-48
2022/02/19 15:17:21;;;;;;;;;17.50;16.75;;;;;;;;5047014;28;51373;-48
2022/02/19 15:20:06;;;;;;;;;21.25;18.50;;;;;;;;5038481;28;51272;-47
2022/02/19 15:22:50;;;;;;;;;23.00;17.00;;;;;;;;5044390;28;51302;-47
2022/02/19 15:25:35;;;;;;;;;20.75;17.00;;;;;;;;5039879;28;51452;-47
2022/02/19 15:28:19;;;;;;;;;18.25;14.50;;;;;;;;5041611;28;51389;-48
2022/02/19 15:31:03;;;;;;;;;17.25;15.75;;;;;;;;5037633;28;51093;-47
2022/02/19 15:33:48;;;;;;;;;26.25;20.75;;;;;;;;5045388;28;51129;-49
2022/02/19 15:36:32;;;;;;;;;28.50;19.00;;;;;;;;5039355;28;51212;-50
2022/02/19 15:39:16;;;;;;;;;23.00;15.75;;;;;;;;5040357;28;51457;-46
2022/02/19 15:42:01;;;;;;;;;23.75;18.50;;;;;;;;5035994;28;51271;-47
2022/02/19 15:44:46;;;;;;;;;27.00;22.00;;;;;;;;5038552;28;51499;-48
2022/02/19 15:47:32;;;;;;;;;21.25;18.25;;;;;;;;5039339;28;51077;-47
2022/02/19 15:50:16;;;;;;;;;26.00;20.00;;;;;;;;5037717;28;51193;-48
2022/02/19 15:53:00;;;;;;;;;22.25;19.25;;;;;;;;5038093;28;51006;-48
2022/02/19 15:55:46;;;;;;;;;25.25;20.25;;;;;;;;5039238;28;51136;-49
2022/02/19 15:58:31;;;;;;;;;15.75;15.75;;;;;;;;5043702;28;51098;-48
2022/02/19 16:01:16;;;;;;;;;22.50;20.00;;;;;;;;5043184;28;51290;-46
2022/02/19 16:04:00;;;;;;;;;21.50;18.75;;;;;;;;5042032;28;51113;-49
2022/02/19 16:06:45;;;;;;;;;23.75;17.75;;;;;;;;5041075;28;51447;-48
2022/02/19 16:09:29;;;;;;;;;20.25;16.25;;;;;;;;5042653;28;51212;-50
2022/02/19 16:12:14;;;;;;;;;18.50;18.50;;;;;;;;5041428;28;51096;-48
2022/02/19 16:14:59;;;;;;;;;20.75;18.00;;;;;;;;5041631;28;51191;-51
2022/02/19 16:17:43;;;;;;;;;21.25;17.00;;;;;;;;5042766;28;51100;-48
2022/02/19 16:20:27;;;;;;;;;19.00;18.25;;;;;;;;5046041;28;51074;-51
2022/02/19 16:23:11;;;;;;;;;22.00;18.00;;;;;;;;5053666;28;51372;-49
2022/02/19 16:25:56;;;;;;;;;19.75;17.50;;;;;;;;5041031;28;51251;-49